Time;durP1;ratioP1;P1;durP2;ratioP2;P2;SDS_P1;SDS_P2;PMS_P1;PMS_P2;Temp;Humidity;BMP_temperature;BMP_pressure;BME280_temperature;BME280_humidity;BME280_pressure;Samples;Min_cycle;Max_cycle;Signal;HPM_P1;HPM_P2
2023/06/24 00:00:23;;;;;;;15.38;13.60;;;;;;;;;;5080089;28;20509;-76
2023/06/24 00:02:50;;;;;;;15.45;13.95;;;;;;;;;;5078909;28;20069;-76
2023/06/24 00:05:16;;;;;;;14.90;13.40;;;;;;;;;;5080612;28;20024;-77
2023/06/24 00:07:44;;;;;;;19.67;14.20;;;;;;;;;;5078138;28;20035;-78
2023/06/24 00:10:11;;;;;;;17.45;14.50;;;;;;;;;;5079609;28;20081;-75
2023/06/24 00:12:39;;;;;;;14.93;13.57;;;;;;;;;;5081225;28;20044;-75
2023/06/24 00:15:05;;;;;;;15.02;13.52;;;;;;;;;;5080454;28;20031;-75
2023/06/24 00:17:30;;;;;;;15.43;13.38;;;;;;;;;;5077485;28;20119;-76
2023/06/24 00:19:56;;;;;;;16.63;15.02;;;;;;;;;;5077212;28;20028;-79
2023/06/24 00:22:22;;;;;;;16.17;14.65;;;;;;;;;;5080579;28;20023;-77
2023/06/24 00:24:47;;;;;;;16.23;14.63;;;;;;;;;;5078043;28;20024;-77
2023/06/24 00:27:13;;;;;;;17.27;15.50;;;;;;;;;;5079657;28;20024;-76
2023/06/24 00:29:38;;;;;;;15.27;13.65;;;;;;;;;;5080523;28;20036;-75
2023/06/24 00:32:04;;;;;;;14.77;13.27;;;;;;;;;;5080951;28;20031;-78
2023/06/24 00:34:29;;;;;;;16.05;14.38;;;;;;;;;;5079733;28;20069;-77
2023/06/24 00:36:55;;;;;;;15.73;14.13;;;;;;;;;;5081079;28;20141;-78
2023/06/24 00:39:20;;;;;;;15.57;14.27;;;;;;;;;;5079818;28;20326;-77
2023/06/24 00:41:46;;;;;;;14.85;13.45;;;;;;;;;;5078516;28;20097;-77
2023/06/24 00:44:11;;;;;;;15.60;13.88;;;;;;;;;;5079575;28;20089;-76
2023/06/24 00:46:37;;;;;;;16.73;13.15;;;;;;;;;;5080511;28;20532;-75
2023/06/24 00:49:02;;;;;;;14.35;12.85;;;;;;;;;;5080948;28;20030;-77
2023/06/24 00:51:30;;;;;;;15.90;14.25;;;;;;;;;;5080932;28;20028;-75
2023/06/24 00:53:58;;;;;;;14.68;13.18;;;;;;;;;;5080835;28;20055;-78
2023/06/24 00:56:32;;;;;;;14.30;12.87;;;;;;;;;;5079253;28;20137;-76
2023/06/24 00:59:01;;;;;;;15.05;13.07;;;;;;;;;;5078486;28;20113;-77
2023/06/24 01:01:28;;;;;;;14.70;13.23;;;;;;;;;;5078585;28;20028;-76
2023/06/24 01:03:53;;;;;;;14.77;13.18;;;;;;;;;;5077337;28;20024;-76
2023/06/24 01:06:18;;;;;;;15.63;13.32;;;;;;;;;;5080376;28;20028;-78
2023/06/24 01:08:50;;;;;;;13.60;12.20;;;;;;;;;;5080536;28;20109;-76
2023/06/24 01:11:16;;;;;;;13.80;12.10;;;;;;;;;;5079595;28;20034;-77
2023/06/24 01:13:41;;;;;;;14.05;12.35;;;;;;;;;;5079722;28;20320;-76
2023/06/24 01:16:10;;;;;;;15.07;13.30;;;;;;;;;;5079827;28;20039;-79
2023/06/24 01:18:40;;;;;;;16.40;13.68;;;;;;;;;;5078926;28;20074;-77
2023/06/24 01:21:11;;;;;;;12.77;11.55;;;;;;;;;;5080193;28;20348;-78
2023/06/24 01:23:43;;;;;;;14.55;12.63;;;;;;;;;;5075812;28;20373;-79
2023/06/24 01:26:20;;;;;;;14.38;12.88;;;;;;;;;;5078096;28;20113;-78
2023/06/24 01:28:48;;;;;;;14.45;12.90;;;;;;;;;;5080272;28;20021;-75
2023/06/24 01:31:26;;;;;;;16.75;14.25;;;;;;;;;;5078576;28;20024;-77
2023/06/24 01:33:51;;;;;;;14.93;13.57;;;;;;;;;;5079093;28;20035;-79
2023/06/24 01:36:18;;;;;;;14.77;13.30;;;;;;;;;;5079904;28;20032;-79
2023/06/24 01:38:48;;;;;;;15.38;13.77;;;;;;;;;;5077743;28;20020;-75
2023/06/24 01:41:15;;;;;;;16.40;14.68;;;;;;;;;;5078031;28;20031;-77
2023/06/24 01:43:42;;;;;;;22.65;14.00;;;;;;;;;;5080005;28;20104;-76
2023/06/24 01:46:08;;;;;;;19.80;13.77;;;;;;;;;;5084159;28;20028;-76
2023/06/24 01:48:35;;;;;;;15.75;13.27;;;;;;;;;;5081659;28;20035;-76
2023/06/24 01:51:00;;;;;;;18.77;12.98;;;;;;;;;;5081830;28;20031;-76
2023/06/24 01:53:32;;;;;;;16.33;14.27;;;;;;;;;;5082374;28;20046;-77
2023/06/24 01:55:58;;;;;;;14.75;13.20;;;;;;;;;;5083439;28;20032;-76
2023/06/24 01:58:24;;;;;;;14.98;13.45;;;;;;;;;;5081695;28;20108;-76
2023/06/24 02:00:50;;;;;;;20.40;14.77;;;;;;;;;;5083558;28;20024;-79
2023/06/24 02:03:16;;;;;;;15.82;13.82;;;;;;;;;;5083763;28;20084;-76
2023/06/24 02:05:42;;;;;;;15.73;14.18;;;;;;;;;;5082639;28;20303;-77
2023/06/24 02:08:11;;;;;;;15.73;14.07;;;;;;;;;;5081414;28;20035;-76
2023/06/24 02:10:38;;;;;;;16.80;13.75;;;;;;;;;;5081495;28;21275;-75
2023/06/24 02:13:04;;;;;;;16.20;14.50;;;;;;;;;;5083112;28;20040;-76
2023/06/24 02:15:30;;;;;;;16.10;14.48;;;;;;;;;;5083831;28;20358;-77
2023/06/24 02:17:56;;;;;;;15.75;14.30;;;;;;;;;;5083260;28;20036;-74
2023/06/24 02:20:27;;;;;;;18.13;14.43;;;;;;;;;;5080674;28;20346;-76
2023/06/24 02:22:53;;;;;;;19.23;14.90;;;;;;;;;;5082064;28;20032;-75
2023/06/24 02:25:18;;;;;;;15.75;14.07;;;;;;;;;;5082865;28;20093;-75
2023/06/24 02:27:43;;;;;;;16.02;14.48;;;;;;;;;;5081607;28;21172;-76
2023/06/24 02:30:09;;;;;;;15.73;14.02;;;;;;;;;;5082500;28;20449;-75
2023/06/24 02:32:38;;;;;;;17.27;15.38;;;;;;;;;;5080167;28;20097;-75
2023/06/24 02:35:03;;;;;;;16.17;14.70;;;;;;;;;;5080240;28;20088;-75
2023/06/24 02:37:29;;;;;;;17.63;14.45;;;;;;;;;;5083169;28;20288;-77
2023/06/24 02:39:54;;;;;;;15.95;13.77;;;;;;;;;;5083244;28;20397;-77
2023/06/24 02:42:20;;;;;;;15.68;14.10;;;;;;;;;;5082927;28;20043;-76
2023/06/24 02:44:45;;;;;;;15.65;14.15;;;;;;;;;;5079696;28;20418;-79
2023/06/24 02:47:12;;;;;;;19.02;13.88;;;;;;;;;;5081734;28;20066;-78
2023/06/24 02:49:38;;;;;;;15.25;13.60;;;;;;;;;;5080086;28;20035;-77
2023/06/24 02:52:05;;;;;;;16.23;14.05;;;;;;;;;;5080257;28;20024;-75
2023/06/24 02:54:30;;;;;;;16.30;14.35;;;;;;;;;;5080158;28;20059;-75
2023/06/24 02:56:57;;;;;;;18.63;13.55;;;;;;;;;;5078046;28;20066;-76
2023/06/24 02:59:23;;;;;;;16.80;13.73;;;;;;;;;;5080789;28;20035;-74
2023/06/24 03:01:49;;;;;;;17.50;14.48;;;;;;;;;;5078825;28;20029;-75
2023/06/24 03:04:15;;;;;;;16.13;14.50;;;;;;;;;;5081626;28;20414;-75
2023/06/24 03:06:41;;;;;;;16.42;14.88;;;;;;;;;;5080671;28;20032;-75
2023/06/24 03:09:07;;;;;;;20.33;15.60;;;;;;;;;;5080393;28;20028;-76
2023/06/24 03:11:39;;;;;;;18.38;15.38;;;;;;;;;;5081240;28;20178;-77
2023/06/24 03:14:05;;;;;;;17.10;15.50;;;;;;;;;;5077518;28;20484;-78
2023/06/24 03:16:30;;;;;;;15.63;14.05;;;;;;;;;;5081071;28;20032;-76
2023/06/24 03:18:56;;;;;;;16.52;14.75;;;;;;;;;;5078693;28;20016;-78
2023/06/24 03:21:21;;;;;;;16.15;14.48;;;;;;;;;;5078854;28;20024;-76
2023/06/24 03:23:46;;;;;;;20.25;14.70;;;;;;;;;;5079214;28;20423;-78
2023/06/24 03:26:12;;;;;;;17.00;14.48;;;;;;;;;;5081022;28;20102;-77
2023/06/24 03:28:38;;;;;;;19.65;14.20;;;;;;;;;;5081156;28;20113;-78
2023/06/24 03:31:03;;;;;;;17.80;12.90;;;;;;;;;;5081979;28;20356;-77
2023/06/24 03:33:29;;;;;;;17.58;14.45;;;;;;;;;;5079650;28;20028;-74
2023/06/24 03:35:56;;;;;;;17.02;13.43;;;;;;;;;;5079643;28;20447;-76
2023/06/24 03:38:22;;;;;;;15.52;13.90;;;;;;;;;;5079252;28;20028;-75
2023/06/24 03:40:47;;;;;;;18.52;14.30;;;;;;;;;;5078122;28;20030;-78
2023/06/24 03:43:13;;;;;;;14.73;13.30;;;;;;;;;;5078706;28;20814;-75
2023/06/24 03:45:38;;;;;;;15.25;13.73;;;;;;;;;;5077797;28;20032;-74
2023/06/24 03:48:03;;;;;;;15.65;14.05;;;;;;;;;;5080321;28;20122;-78
2023/06/24 03:50:29;;;;;;;18.05;14.35;;;;;;;;;;5079913;28;20016;-76
2023/06/24 03:52:54;;;;;;;17.15;14.85;;;;;;;;;;5080737;28;20447;-76
2023/06/24 03:55:19;;;;;;;15.55;14.00;;;;;;;;;;5077372;28;20056;-75
2023/06/24 03:57:45;;;;;;;16.77;14.52;;;;;;;;;;5081268;28;20426;-78
2023/06/24 04:00:15;;;;;;;16.58;14.93;;;;;;;;;;5077946;28;20085;-75
2023/06/24 04:02:41;;;;;;;15.43;13.98;;;;;;;;;;5077975;28;20807;-75
2023/06/24 04:05:07;;;;;;;15.18;13.63;;;;;;;;;;5079913;28;20028;-75
2023/06/24 04:07:32;;;;;;;16.08;14.55;;;;;;;;;;5080937;28;20077;-76
2023/06/24 04:09:57;;;;;;;26.10;16.98;;;;;;;;;;5080738;28;20123;-75
2023/06/24 04:12:23;;;;;;;21.23;15.85;;;;;;;;;;5079147;28;20107;-76
2023/06/24 04:14:49;;;;;;;16.48;14.73;;;;;;;;;;5077570;28;20031;-77
2023/06/24 04:17:14;;;;;;;17.98;14.52;;;;;;;;;;5079904;28;20081;-75
2023/06/24 04:19:40;;;;;;;15.55;13.95;;;;;;;;;;5080473;28;20035;-75
2023/06/24 04:22:06;;;;;;;16.55;13.80;;;;;;;;;;5080999;28;20024;-78
2023/06/24 04:24:31;;;;;;;16.40;13.90;;;;;;;;;;5080947;28;20028;-76
2023/06/24 04:26:57;;;;;;;16.65;14.10;;;;;;;;;;5081840;28;20073;-78
2023/06/24 04:29:22;;;;;;;15.20;13.63;;;;;;;;;;5079144;28;20416;-76
2023/06/24 04:31:48;;;;;;;17.38;14.18;;;;;;;;;;5081225;28;20030;-75
2023/06/24 04:34:13;;;;;;;16.05;13.88;;;;;;;;;;5076688;28;20031;-76
2023/06/24 04:36:38;;;;;;;16.10;12.82;;;;;;;;;;5069343;28;20035;-75
2023/06/24 04:39:04;;;;;;;17.15;12.85;;;;;;;;;;5079320;28;20032;-77
2023/06/24 04:41:29;;;;;;;16.65;13.50;;;;;;;;;;5077082;28;20103;-75
2023/06/24 04:43:54;;;;;;;15.52;13.35;;;;;;;;;;5080827;28;20089;-75
2023/06/24 04:46:20;;;;;;;15.98;13.35;;;;;;;;;;5079947;28;20078;-77
2023/06/24 04:48:45;;;;;;;17.50;13.13;;;;;;;;;;5079780;28;20442;-79
2023/06/24 04:51:10;;;;;;;19.45;13.48;;;;;;;;;;5080005;28;20032;-75
2023/06/24 04:53:36;;;;;;;19.25;14.57;;;;;;;;;;5080284;28;20035;-76
2023/06/24 04:56:01;;;;;;;15.95;14.13;;;;;;;;;;5078832;28;20739;-75
2023/06/24 04:58:26;;;;;;;26.02;14.35;;;;;;;;;;5079441;28;20044;-75
2023/06/24 05:00:53;;;;;;;23.00;13.68;;;;;;;;;;5079025;28;20048;-75
2023/06/24 05:03:18;;;;;;;26.08;15.02;;;;;;;;;;5079139;28;20032;-76
2023/06/24 05:05:44;;;;;;;21.50;15.05;;;;;;;;;;5079162;28;20024;-75
2023/06/24 05:08:09;;;;;;;23.52;15.13;;;;;;;;;;5080712;28;20063;-76
2023/06/24 05:10:34;;;;;;;21.35;14.73;;;;;;;;;;5077209;28;20030;-76
2023/06/24 05:13:00;;;;;;;24.42;14.45;;;;;;;;;;5079465;28;20059;-76
2023/06/24 05:15:25;;;;;;;22.27;14.73;;;;;;;;;;5078336;28;20063;-77
2023/06/24 05:17:50;;;;;;;23.38;15.13;;;;;;;;;;5078507;28;20043;-76
2023/06/24 05:20:17;;;;;;;26.42;13.30;;;;;;;;;;5082831;28;20024;-75
2023/06/24 05:22:43;;;;;;;30.10;13.85;;;;;;;;;;5084185;28;20035;-76
2023/06/24 05:25:08;;;;;;;31.95;13.18;;;;;;;;;;5083168;28;20028;-75
2023/06/24 05:27:33;;;;;;;23.08;13.05;;;;;;;;;;5081198;28;20355;-77
2023/06/24 05:29:59;;;;;;;24.50;13.13;;;;;;;;;;5083825;28;20134;-76
2023/06/24 05:32:24;;;;;;;24.85;12.57;;;;;;;;;;5084754;28;20093;-77
2023/06/24 05:34:49;;;;;;;27.58;12.75;;;;;;;;;;5084028;28;20032;-78
2023/06/24 05:37:15;;;;;;;31.60;13.05;;;;;;;;;;5082918;28;20039;-76
2023/06/24 05:39:40;;;;;;;26.52;13.93;;;;;;;;;;5082108;28;20080;-75
2023/06/24 05:42:05;;;;;;;23.67;12.25;;;;;;;;;;5082933;28;20131;-77
2023/06/24 05:44:31;;;;;;;24.88;13.40;;;;;;;;;;5083174;28;20056;-75
2023/06/24 05:46:56;;;;;;;20.20;12.00;;;;;;;;;;5080743;28;20285;-75
2023/06/24 05:49:21;;;;;;;23.73;13.30;;;;;;;;;;5084626;28;20051;-76
2023/06/24 05:51:47;;;;;;;26.50;13.95;;;;;;;;;;5083229;28;20032;-75
2023/06/24 05:54:12;;;;;;;21.65;13.63;;;;;;;;;;5081083;28;20028;-77
2023/06/24 05:56:37;;;;;;;24.33;12.77;;;;;;;;;;5083375;28;20040;-76
2023/06/24 05:59:03;;;;;;;21.90;12.35;;;;;;;;;;5082870;28;20415;-76
2023/06/24 06:01:28;;;;;;;24.20;12.18;;;;;;;;;;5080624;28;20036;-77
2023/06/24 06:03:54;;;;;;;22.38;13.02;;;;;;;;;;5083721;28;20036;-76
2023/06/24 06:06:19;;;;;;;24.48;13.30;;;;;;;;;;5082657;28;20092;-77
2023/06/24 06:08:44;;;;;;;18.50;13.20;;;;;;;;;;5080179;28;20073;-76
2023/06/24 06:11:10;;;;;;;17.42;12.50;;;;;;;;;;5083837;28;20163;-76
2023/06/24 06:13:35;;;;;;;27.27;14.35;;;;;;;;;;5080513;28;20058;-76
2023/06/24 06:16:00;;;;;;;21.60;13.98;;;;;;;;;;5084055;28;20427;-76
2023/06/24 06:18:25;;;;;;;22.25;13.50;;;;;;;;;;5083962;28;20529;-76
2023/06/24 06:20:51;;;;;;;23.67;13.65;;;;;;;;;;5083503;28;20359;-77
2023/06/24 06:23:16;;;;;;;26.65;14.48;;;;;;;;;;5083610;28;20103;-78
2023/06/24 06:25:42;;;;;;;29.30;15.48;;;;;;;;;;5082320;28;20035;-76
2023/06/24 06:28:07;;;;;;;22.65;13.70;;;;;;;;;;5081077;28;20059;-77
2023/06/24 06:30:33;;;;;;;20.00;13.70;;;;;;;;;;5081922;28;20053;-75
2023/06/24 06:32:58;;;;;;;18.35;14.13;;;;;;;;;;5081745;28;20032;-77
2023/06/24 06:35:23;;;;;;;22.23;14.10;;;;;;;;;;5080235;28;20024;-77
2023/06/24 06:37:52;;;;;;;21.60;15.73;;;;;;;;;;5081069;28;20089;-75
2023/06/24 06:40:19;;;;;;;20.27;14.43;;;;;;;;;;5081328;28;20024;-76
2023/06/24 06:42:44;;;;;;;19.67;14.18;;;;;;;;;;5080490;28;20036;-76
2023/06/24 06:45:10;;;;;;;22.95;14.48;;;;;;;;;;5081209;28;20024;-78
2023/06/24 06:47:35;;;;;;;23.15;14.90;;;;;;;;;;5082138;28;20024;-76
2023/06/24 06:50:00;;;;;;;24.35;14.13;;;;;;;;;;5082358;28;20024;-76
2023/06/24 06:52:27;;;;;;;21.40;14.52;;;;;;;;;;5081647;28;20028;-77
2023/06/24 06:54:53;;;;;;;22.02;14.43;;;;;;;;;;5081410;28;20025;-76
2023/06/24 06:57:18;;;;;;;21.02;14.27;;;;;;;;;;5079684;28;20032;-75
2023/06/24 06:59:43;;;;;;;21.08;15.05;;;;;;;;;;5083227;28;20876;-76
2023/06/24 07:02:09;;;;;;;24.85;15.23;;;;;;;;;;5080931;28;20157;-77
2023/06/24 07:04:34;;;;;;;22.23;16.23;;;;;;;;;;5079934;28;20091;-77
2023/06/24 07:06:59;;;;;;;20.52;14.57;;;;;;;;;;5082400;28;20039;-77
2023/06/24 07:09:25;;;;;;;24.23;15.10;;;;;;;;;;5082509;28;20032;-77
2023/06/24 07:11:50;;;;;;;22.30;15.02;;;;;;;;;;5082593;28;20347;-78
2023/06/24 07:14:15;;;;;;;24.83;15.82;;;;;;;;;;5082646;28;20035;-79
2023/06/24 07:16:41;;;;;;;20.70;14.82;;;;;;;;;;5081425;28;20044;-77
2023/06/24 07:19:06;;;;;;;22.00;15.65;;;;;;;;;;5081415;28;20032;-79
2023/06/24 07:21:31;;;;;;;26.30;15.35;;;;;;;;;;5082699;28;20257;-77
2023/06/24 07:23:57;;;;;;;25.95;15.93;;;;;;;;;;5081007;28;20032;-77
2023/06/24 07:26:22;;;;;;;20.42;15.15;;;;;;;;;;5080069;28;20125;-77
2023/06/24 07:28:47;;;;;;;19.52;14.90;;;;;;;;;;5080222;28;20030;-77
2023/06/24 07:31:12;;;;;;;21.13;14.60;;;;;;;;;;5079048;28;20219;-77
2023/06/24 07:33:38;;;;;;;23.48;15.20;;;;;;;;;;5082599;28;20114;-77
2023/06/24 07:36:03;;;;;;;18.35;14.80;;;;;;;;;;5080652;28;20028;-78
2023/06/24 07:38:29;;;;;;;22.85;14.75;;;;;;;;;;5079595;28;20032;-76
2023/06/24 07:40:55;;;;;;;28.27;14.82;;;;;;;;;;5082023;28;20331;-77
2023/06/24 07:43:20;;;;;;;21.58;14.77;;;;;;;;;;5081126;28;20032;-77
2023/06/24 07:45:46;;;;;;;26.80;14.60;;;;;;;;;;5081616;28;20024;-76
2023/06/24 07:48:11;;;;;;;25.25;15.57;;;;;;;;;;5080296;28;20028;-77
2023/06/24 07:50:37;;;;;;;21.77;14.05;;;;;;;;;;5081466;28;20024;-76
2023/06/24 07:53:03;;;;;;;23.73;14.25;;;;;;;;;;5080370;28;20074;-77
2023/06/24 07:55:28;;;;;;;21.98;15.20;;;;;;;;;;5080793;28;20051;-79
2023/06/24 07:57:53;;;;;;;22.75;14.27;;;;;;;;;;5081302;28;20056;-77
2023/06/24 08:00:19;;;;;;;26.35;14.73;;;;;;;;;;5080489;28;20106;-78
2023/06/24 08:02:44;;;;;;;22.92;14.48;;;;;;;;;;5080181;28;20996;-75
2023/06/24 08:05:09;;;;;;;18.08;14.30;;;;;;;;;;5081751;28;20428;-78
2023/06/24 08:07:35;;;;;;;18.27;13.90;;;;;;;;;;5079200;28;20585;-76
2023/06/24 08:10:01;;;;;;;24.50;15.77;;;;;;;;;;5080413;28;20466;-78
2023/06/24 08:12:26;;;;;;;24.90;13.95;;;;;;;;;;5079611;28;20036;-77
2023/06/24 08:14:51;;;;;;;18.85;14.65;;;;;;;;;;5082770;28;20032;-77
2023/06/24 08:17:17;;;;;;;20.88;15.27;;;;;;;;;;5079704;28;20111;-76
2023/06/24 08:19:42;;;;;;;19.45;14.38;;;;;;;;;;5081172;28;20053;-77
2023/06/24 08:22:08;;;;;;;18.95;14.57;;;;;;;;;;5079873;28;20024;-79
2023/06/24 08:24:33;;;;;;;23.20;14.65;;;;;;;;;;5078408;28;20020;-79
2023/06/24 08:26:58;;;;;;;23.00;14.48;;;;;;;;;;5079852;28;20036;-77
2023/06/24 08:29:24;;;;;;;21.00;14.80;;;;;;;;;;5081643;28;20024;-79
2023/06/24 08:31:49;;;;;;;22.65;14.48;;;;;;;;;;5081585;28;20762;-77
2023/06/24 08:34:14;;;;;;;24.58;14.25;;;;;;;;;;5079971;28;20055;-77
2023/06/24 08:36:40;;;;;;;20.88;14.63;;;;;;;;;;5081238;28;20063;-76
2023/06/24 08:39:05;;;;;;;20.08;14.40;;;;;;;;;;5082281;28;20016;-76
2023/06/24 08:41:30;;;;;;;24.38;14.07;;;;;;;;;;5080844;28;20028;-76
2023/06/24 08:43:56;;;;;;;24.88;14.90;;;;;;;;;;5081382;28;20111;-77
2023/06/24 08:46:23;;;;;;;17.08;13.27;;;;;;;;;;5080836;28;20032;-80
2023/06/24 08:48:49;;;;;;;16.15;13.80;;;;;;;;;;5078661;28;20026;-78
2023/06/24 08:51:17;;;;;;;19.38;14.25;;;;;;;;;;5079035;28;20355;-80
2023/06/24 08:53:43;;;;;;;22.02;14.60;;;;;;;;;;5079802;28;20028;-80
2023/06/24 08:56:09;;;;;;;18.40;14.48;;;;;;;;;;5082601;28;20031;-79
2023/06/24 08:58:35;;;;;;;21.27;14.75;;;;;;;;;;5084345;28;20048;-78
2023/06/24 09:01:01;;;;;;;23.23;14.82;;;;;;;;;;5084987;28;20458;-77
2023/06/24 09:03:27;;;;;;;19.33;14.43;;;;;;;;;;5082383;28;20012;-77
2023/06/24 09:05:52;;;;;;;22.35;14.85;;;;;;;;;;5083251;28;20024;-78
2023/06/24 09:08:18;;;;;;;21.95;15.40;;;;;;;;;;5084592;28;20078;-77
2023/06/24 09:10:43;;;;;;;21.20;15.65;;;;;;;;;;5084324;28;20020;-78
2023/06/24 09:13:08;;;;;;;24.17;15.98;;;;;;;;;;5085277;28;20427;-77
2023/06/24 09:15:35;;;;;;;23.92;17.02;;;;;;;;;;5084879;28;20028;-79
2023/06/24 09:18:00;;;;;;;25.42;17.23;;;;;;;;;;5083509;28;20115;-79
2023/06/24 09:20:30;;;;;;;23.15;16.45;;;;;;;;;;5084039;28;20114;-78
2023/06/24 09:22:59;;;;;;;26.17;17.35;;;;;;;;;;5079571;28;20389;-78
2023/06/24 09:25:24;;;;;;;26.50;16.85;;;;;;;;;;5084583;28;20739;-78
2023/06/24 09:27:52;;;;;;;21.17;17.05;;;;;;;;;;5084114;28;20068;-77
2023/06/24 09:30:20;;;;;;;22.05;16.92;;;;;;;;;;5083394;28;20358;-77
2023/06/24 09:32:47;;;;;;;24.42;18.45;;;;;;;;;;5082710;28;20064;-77
2023/06/24 09:35:13;;;;;;;27.73;17.30;;;;;;;;;;5084642;28;20020;-79
2023/06/24 09:37:38;;;;;;;25.88;16.15;;;;;;;;;;5082784;28;20081;-78
2023/06/24 09:40:05;;;;;;;20.75;16.02;;;;;;;;;;5084094;28;20035;-79
2023/06/24 09:42:31;;;;;;;28.15;18.25;;;;;;;;;;5084942;28;20304;-78
2023/06/24 09:44:56;;;;;;;22.95;16.92;;;;;;;;;;5084275;28;20495;-78
2023/06/24 09:47:24;;;;;;;24.42;17.45;;;;;;;;;;5084176;28;20032;-78
2023/06/24 09:49:50;;;;;;;23.95;18.90;;;;;;;;;;5083881;28;20027;-81
2023/06/24 09:52:16;;;;;;;27.65;19.02;;;;;;;;;;5082052;28;20032;-79
2023/06/24 09:54:43;;;;;;;24.83;18.65;;;;;;;;;;5082994;28;20034;-78
2023/06/24 09:57:09;;;;;;;24.58;17.50;;;;;;;;;;5082248;28;20046;-81
2023/06/24 09:59:36;;;;;;;22.45;17.98;;;;;;;;;;5076354;28;20051;-78
2023/06/24 10:02:02;;;;;;;25.55;19.40;;;;;;;;;;5081230;28;20048;-78
2023/06/24 10:04:27;;;;;;;31.15;18.90;;;;;;;;;;5080762;28;20114;-80
2023/06/24 10:06:53;;;;;;;27.23;19.67;;;;;;;;;;5080003;28;20028;-77
2023/06/24 10:09:19;;;;;;;22.25;17.58;;;;;;;;;;5082079;28;20051;-80
2023/06/24 10:11:45;;;;;;;24.00;18.92;;;;;;;;;;5080946;28;20024;-80
2023/06/24 10:14:11;;;;;;;25.65;18.92;;;;;;;;;;5079433;28;20459;-78
2023/06/24 10:16:36;;;;;;;21.73;18.60;;;;;;;;;;5082277;28;20067;-79
2023/06/24 10:19:02;;;;;;;24.30;18.40;;;;;;;;;;5079782;28;20343;-79
2023/06/24 10:21:47;;;;;;;27.08;18.83;;;;;;;;;;5082556;28;20089;-80
2023/06/24 10:24:12;;;;;;;26.30;18.17;;;;;;;;;;5078270;28;20016;-78
2023/06/24 10:26:40;;;;;;;23.92;18.55;;;;;;;;;;5081933;28;20038;-77
2023/06/24 10:29:05;;;;;;;27.13;20.25;;;;;;;;;;5075998;28;20397;-77
2023/06/24 10:31:39;;;;;;;23.27;18.60;;;;;;;;;;5069016;28;20131;-78
2023/06/24 10:34:23;;;;;;;22.85;18.45;;;;;;;;;;5082042;28;20043;-81
2023/06/24 10:36:55;;;;;;;21.63;17.90;;;;;;;;;;5080520;28;20032;-78
2023/06/24 10:39:39;;;;;;;27.00;20.00;;;;;;;;;;5080433;28;20035;-77
2023/06/24 10:42:23;;;;;;;24.20;19.75;;;;;;;;;;5079687;28;20055;-78
2023/06/24 10:44:49;;;;;;;25.35;19.20;;;;;;;;;;5081519;28;20395;-78
2023/06/24 10:47:14;;;;;;;23.80;18.30;;;;;;;;;;5080305;28;20119;-78
2023/06/24 10:49:39;;;;;;;24.15;18.17;;;;;;;;;;5080550;28;20095;-79
2023/06/24 10:52:07;;;;;;;19.50;16.73;;;;;;;;;;5080526;28;20058;-79
2023/06/24 10:54:33;;;;;;;22.98;19.00;;;;;;;;;;5081718;28;20024;-78
2023/06/24 10:56:58;;;;;;;23.00;18.38;;;;;;;;;;5082383;28;20044;-80
2023/06/24 10:59:23;;;;;;;27.10;18.55;;;;;;;;;;5035432;28;1299165;-77
2023/06/24 11:01:55;;;;;;;21.05;18.10;;;;;;;;;;5083091;28;20097;-77
2023/06/24 11:04:20;;;;;;;21.88;17.92;;;;;;;;;;5079480;28;20107;-76
2023/06/24 11:07:02;;;;;;;23.75;19.02;;;;;;;;;;5082532;28;20126;-79
2023/06/24 11:09:27;;;;;;;24.55;19.40;;;;;;;;;;5081690;28;20340;-80
2023/06/24 11:11:53;;;;;;;23.30;20.13;;;;;;;;;;5079874;28;20032;-80
2023/06/24 11:14:21;;;;;;;24.92;19.98;;;;;;;;;;5081644;28;20028;-78
2023/06/24 11:16:47;;;;;;;30.63;21.52;;;;;;;;;;5078848;28;20125;-78
2023/06/24 11:19:12;;;;;;;24.10;19.02;;;;;;;;;;5078364;28;20067;-77
2023/06/24 11:21:38;;;;;;;21.45;19.05;;;;;;;;;;5079438;28;20113;-77
2023/06/24 11:24:03;;;;;;;25.05;19.80;;;;;;;;;;5080217;28;20053;-78
2023/06/24 11:26:29;;;;;;;21.35;18.70;;;;;;;;;;5082650;28;20034;-77
2023/06/24 11:28:54;;;;;;;26.52;18.70;;;;;;;;;;5080358;28;20032;-77
2023/06/24 11:31:24;;;;;;;23.92;18.50;;;;;;;;;;5079905;28;20421;-77
2023/06/24 11:33:50;;;;;;;22.40;19.98;;;;;;;;;;5081800;28;20487;-76
2023/06/24 11:36:22;;;;;;;22.58;19.23;;;;;;;;;;5082316;28;20103;-76
2023/06/24 11:38:47;;;;;;;24.60;19.10;;;;;;;;;;5079656;28;20424;-79
2023/06/24 11:41:12;;;;;;;20.92;18.65;;;;;;;;;;5081062;28;20036;-80
2023/06/24 11:43:43;;;;;;;20.67;18.45;;;;;;;;;;5079949;28;20020;-80
2023/06/24 11:46:08;;;;;;;25.17;19.13;;;;;;;;;;5082108;28;20043;-79
2023/06/24 11:48:39;;;;;;;23.55;18.15;;;;;;;;;;5080652;28;20028;-78
2023/06/24 11:51:12;;;;;;;21.98;18.60;;;;;;;;;;5080001;28;20059;-79
2023/06/24 11:53:48;;;;;;;20.88;16.63;;;;;;;;;;5080137;28;20430;-78
2023/06/24 11:56:13;;;;;;;21.60;17.77;;;;;;;;;;5080681;28;20032;-79
2023/06/24 11:58:39;;;;;;;19.65;17.50;;;;;;;;;;5080787;28;20048;-78
2023/06/24 12:01:08;;;;;;;20.40;17.80;;;;;;;;;;5078781;28;20504;-77
2023/06/24 12:03:33;;;;;;;20.27;17.42;;;;;;;;;;5079994;28;20127;-79
2023/06/24 12:05:59;;;;;;;19.55;17.63;;;;;;;;;;5079085;28;20488;-78
2023/06/24 12:08:24;;;;;;;23.17;16.73;;;;;;;;;;5082077;28;20080;-78
2023/06/24 12:10:49;;;;;;;21.15;17.67;;;;;;;;;;5080608;28;20035;-78
2023/06/24 12:13:15;;;;;;;21.98;17.70;;;;;;;;;;5081910;28;20135;-79
2023/06/24 12:15:40;;;;;;;19.95;17.05;;;;;;;;;;5082872;28;20024;-80
2023/06/24 12:18:06;;;;;;;21.35;17.10;;;;;;;;;;5079073;28;20028;-79
2023/06/24 12:20:32;;;;;;;24.00;18.98;;;;;;;;;;5081044;28;20134;-77
2023/06/24 12:22:57;;;;;;;22.92;16.95;;;;;;;;;;5079730;28;20351;-78
2023/06/24 12:25:23;;;;;;;21.85;17.52;;;;;;;;;;5079411;28;20039;-77
2023/06/24 12:27:48;;;;;;;19.65;16.25;;;;;;;;;;5078024;28;20035;-80
2023/06/24 12:30:14;;;;;;;21.38;17.52;;;;;;;;;;5079298;28;20044;-77
2023/06/24 12:32:39;;;;;;;23.60;18.08;;;;;;;;;;5077569;28;20074;-77
2023/06/24 12:35:05;;;;;;;20.45;16.55;;;;;;;;;;5081146;28;20024;-78
2023/06/24 12:37:32;;;;;;;19.40;17.30;;;;;;;;;;5081554;28;20032;-76
2023/06/24 12:39:57;;;;;;;20.20;17.77;;;;;;;;;;5078936;28;20058;-77
2023/06/24 12:42:23;;;;;;;20.25;17.02;;;;;;;;;;5080092;28;20032;-78
2023/06/24 12:44:48;;;;;;;19.33;16.88;;;;;;;;;;5081812;28;20119;-79
2023/06/24 12:47:13;;;;;;;17.75;15.90;;;;;;;;;;5079208;28;20043;-78
2023/06/24 12:49:39;;;;;;;18.15;15.77;;;;;;;;;;5081213;28;20028;-78
2023/06/24 12:52:04;;;;;;;20.40;16.45;;;;;;;;;;5079610;28;20423;-77
2023/06/24 12:54:29;;;;;;;21.55;16.15;;;;;;;;;;5081367;28;20464;-76
2023/06/24 12:56:55;;;;;;;20.48;17.33;;;;;;;;;;5078618;28;20016;-79
2023/06/24 12:59:20;;;;;;;17.63;15.35;;;;;;;;;;5080786;28;20047;-77
2023/06/24 13:01:46;;;;;;;17.50;15.20;;;;;;;;;;5080954;28;20036;-77
2023/06/24 13:04:11;;;;;;;20.45;15.55;;;;;;;;;;5081785;28;20168;-78
2023/06/24 13:06:37;;;;;;;19.58;15.63;;;;;;;;;;5080858;28;20956;-77
2023/06/24 13:09:02;;;;;;;15.85;14.27;;;;;;;;;;5079810;28;20157;-78
2023/06/24 13:11:27;;;;;;;19.40;16.23;;;;;;;;;;5077729;28;20039;-77
2023/06/24 13:13:53;;;;;;;17.73;15.82;;;;;;;;;;5081892;28;20166;-80
2023/06/24 13:16:18;;;;;;;16.90;14.80;;;;;;;;;;5079824;28;20466;-77
2023/06/24 13:18:43;;;;;;;18.15;16.25;;;;;;;;;;5078755;28;20045;-80
2023/06/24 13:21:09;;;;;;;18.23;15.60;;;;;;;;;;5079204;28;20035;-79
2023/06/24 13:23:37;;;;;;;16.45;14.93;;;;;;;;;;5079983;28;20028;-81
2023/06/24 13:26:02;;;;;;;17.88;16.02;;;;;;;;;;5080188;28;20355;-79
2023/06/24 13:28:28;;;;;;;18.40;16.20;;;;;;;;;;5080079;28;20047;-77
2023/06/24 13:30:54;;;;;;;16.42;14.68;;;;;;;;;;5079828;28;20035;-78
2023/06/24 13:33:19;;;;;;;18.90;15.82;;;;;;;;;;5079588;28;20024;-79
2023/06/24 13:35:45;;;;;;;17.30;15.07;;;;;;;;;;5079301;28;20320;-81
2023/06/24 13:38:12;;;;;;;17.00;15.15;;;;;;;;;;5079580;28;20035;-79
2023/06/24 13:40:37;;;;;;;16.88;15.23;;;;;;;;;;5081356;28;20165;-79
2023/06/24 13:43:02;;;;;;;17.88;16.08;;;;;;;;;;5082418;28;20222;-78
2023/06/24 13:45:28;;;;;;;29.60;26.55;;;;;;;;;;5082310;28;20024;-79
2023/06/24 13:47:55;;;;;;;32.53;25.40;;;;;;;;;;5084540;28;20051;-79
2023/06/24 13:50:20;;;;;;;31.60;25.30;;;;;;;;;;5083529;28;20031;-79
2023/06/24 13:52:45;;;;;;;32.38;26.13;;;;;;;;;;5083773;28;20028;-77
2023/06/24 13:55:11;;;;;;;33.55;28.80;;;;;;;;;;5081999;28;20092;-77
2023/06/24 13:57:36;;;;;;;39.08;32.75;;;;;;;;;;5082644;28;20028;-78
2023/06/24 14:00:02;;;;;;;36.15;30.75;;;;;;;;;;5081925;28;20024;-78
2023/06/24 14:02:27;;;;;;;44.90;34.05;;;;;;;;;;5083406;28;20453;-77
2023/06/24 14:04:52;;;;;;;40.55;32.85;;;;;;;;;;5081811;28;20020;-76
2023/06/24 14:07:18;;;;;;;38.55;32.88;;;;;;;;;;5083151;28;20039;-78
2023/06/24 14:09:43;;;;;;;40.95;35.80;;;;;;;;;;5080443;28;20089;-76